createdAt,value
2019-04-05T00:01:04.565Z,1.77
2019-04-05T00:03:34.144Z,2.30
2019-04-05T00:06:02.726Z,2.00
2019-04-05T00:08:31.180Z,2.40
2019-04-05T00:11:00.850Z,2.30
2019-04-05T00:13:29.309Z,2.73
2019-04-05T00:15:58.055Z,2.40
2019-04-05T00:18:26.620Z,2.47
2019-04-05T00:20:55.613Z,1.90
2019-04-05T00:23:24.177Z,2.23
2019-04-05T00:25:53.600Z,2.03
2019-04-05T00:28:21.801Z,2.50
2019-04-05T00:30:50.506Z,2.00
2019-04-05T00:33:19.293Z,2.03
2019-04-05T00:35:47.917Z,1.80
2019-04-05T00:38:16.721Z,2.37
2019-04-05T00:40:45.453Z,2.00
2019-04-05T00:43:13.911Z,1.80
2019-04-05T00:45:42.446Z,2.40
2019-04-05T00:48:10.677Z,2.27
2019-04-05T00:50:40.096Z,1.50
2019-04-05T00:53:08.478Z,2.43
2019-04-05T00:55:38.094Z,2.20
2019-04-05T00:58:06.430Z,2.40
2019-04-05T01:00:34.781Z,2.00
2019-04-05T01:03:03.427Z,1.73
2019-04-05T01:05:32.016Z,1.50
2019-04-05T01:08:00.550Z,1.77
2019-04-05T01:10:29.169Z,1.73
2019-04-05T01:12:58.154Z,2.27
2019-04-05T01:15:26.878Z,1.93
2019-04-05T01:17:55.240Z,2.10
2019-04-05T01:20:25.305Z,1.77
2019-04-05T01:22:54.242Z,2.00
2019-04-05T01:25:23.288Z,2.17
2019-04-05T01:27:52.130Z,1.93
2019-04-05T01:30:20.542Z,2.33
2019-04-05T01:32:48.959Z,1.80
2019-04-05T01:35:17.590Z,1.57
2019-04-05T01:37:46.133Z,2.25
2019-04-05T01:40:14.956Z,1.70
2019-04-05T01:42:43.537Z,1.20
2019-04-05T01:45:12.242Z,1.50
2019-04-05T01:47:41.097Z,1.77
2019-04-05T01:50:09.618Z,1.93
2019-04-05T01:52:38.668Z,1.80
2019-04-05T01:55:08.895Z,1.80
2019-04-05T01:57:37.582Z,1.30
2019-04-05T02:00:06.557Z,0.90
2019-04-05T02:02:35.669Z,1.27
2019-04-05T02:05:05.743Z,1.50
2019-04-05T02:07:34.246Z,1.20
2019-04-05T02:10:03.133Z,1.77
2019-04-05T02:12:31.778Z,1.47
2019-04-05T02:15:00.329Z,1.37
2019-04-05T02:17:29.270Z,1.80
2019-04-05T02:19:58.008Z,1.33
2019-04-05T02:22:26.589Z,1.13
2019-04-05T02:24:55.078Z,2.17
2019-04-05T02:27:23.453Z,1.75
2019-04-05T02:29:52.499Z,1.80
2019-04-05T02:32:20.853Z,1.80
2019-04-05T02:34:49.872Z,1.37
2019-04-05T02:37:18.709Z,2.03
2019-04-05T02:39:47.491Z,2.40
2019-04-05T02:42:15.986Z,1.47
2019-04-05T02:44:44.701Z,3.40
2019-04-05T02:47:13.466Z,1.83
2019-04-05T02:49:44.249Z,1.80
2019-04-05T02:52:14.398Z,1.60
2019-04-05T02:54:44.090Z,1.03
2019-04-05T02:57:12.741Z,2.00
2019-04-05T02:59:41.726Z,1.87
2019-04-05T03:02:10.473Z,2.40
2019-04-05T03:04:39.016Z,1.93
2019-04-05T03:07:08.009Z,1.50
2019-04-05T03:09:36.851Z,2.60
2019-04-05T03:12:06.105Z,1.97
2019-04-05T03:14:35.203Z,1.90
2019-04-05T03:17:03.630Z,1.67
2019-04-05T03:19:32.777Z,1.20
2019-04-05T03:22:03.178Z,1.90
2019-04-05T03:24:33.825Z,1.70
2019-04-05T03:27:05.187Z,1.97
2019-04-05T03:29:34.093Z,1.50
2019-04-05T03:32:03.341Z,1.77
2019-04-05T03:34:32.917Z,1.27
2019-04-05T03:37:01.605Z,1.53
2019-04-05T03:39:30.296Z,1.90
2019-04-05T03:41:58.712Z,1.23
2019-04-05T03:44:27.328Z,1.73
2019-04-05T03:46:57.933Z,1.43
2019-04-05T03:49:26.818Z,1.60
2019-04-05T03:51:55.559Z,1.40
2019-04-05T03:54:24.627Z,1.80
2019-04-05T03:56:52.989Z,1.93
2019-04-05T03:59:21.590Z,1.70
2019-04-05T04:01:50.266Z,1.73
2019-04-05T04:04:19.152Z,1.70
2019-04-05T04:06:48.149Z,1.90
2019-04-05T04:09:17.388Z,1.93
2019-04-05T04:11:46.761Z,1.50
2019-04-05T04:14:16.360Z,2.00
2019-04-05T04:16:45.165Z,1.43
2019-04-05T04:19:14.658Z,2.90
2019-04-05T04:22:08.770Z,1.67
2019-04-05T04:24:37.883Z,1.50
2019-04-05T04:27:07.219Z,1.67
2019-04-05T04:29:35.889Z,1.60
2019-04-05T04:32:04.921Z,1.80
2019-04-05T04:34:33.459Z,2.23
2019-04-05T04:37:01.951Z,2.10
2019-04-05T04:39:30.492Z,2.00
2019-04-05T04:41:58.891Z,1.90
2019-04-05T04:44:27.613Z,1.90
2019-04-05T04:46:56.632Z,2.13
2019-04-05T04:49:25.285Z,1.80
2019-04-05T04:51:54.063Z,2.67
2019-04-05T04:54:22.694Z,2.70
2019-04-05T04:56:51.659Z,3.00
2019-04-05T04:59:20.310Z,3.03
2019-04-05T05:01:48.549Z,3.63
2019-04-05T05:04:17.041Z,3.10
2019-04-05T05:06:45.603Z,2.57
2019-04-05T05:09:14.191Z,2.97
2019-04-05T05:11:42.997Z,3.80
2019-04-05T05:14:11.874Z,3.03
2019-04-05T05:16:40.582Z,2.60
2019-04-05T05:19:09.480Z,2.83
2019-04-05T05:21:38.286Z,1.97
2019-04-05T05:24:06.897Z,2.33
2019-04-05T05:26:35.625Z,2.90
2019-04-05T05:29:04.629Z,2.43
2019-04-05T05:31:33.730Z,2.70
2019-04-05T05:34:02.170Z,2.00
2019-04-05T05:36:30.710Z,1.60
2019-04-05T05:38:59.205Z,1.17
2019-04-05T05:41:27.674Z,1.73
2019-04-05T05:43:56.631Z,1.60
2019-04-05T05:46:25.389Z,1.20
2019-04-05T05:48:54.875Z,1.13
2019-04-05T05:51:24.434Z,1.03
2019-04-05T05:53:52.981Z,1.00
2019-04-05T05:56:21.605Z,0.80
2019-04-05T05:58:50.184Z,0.80
2019-04-05T06:01:18.634Z,1.27
2019-04-05T06:03:46.993Z,1.30
2019-04-05T06:06:15.377Z,1.50
2019-04-05T06:08:43.822Z,1.20
2019-04-05T06:11:12.482Z,1.53
2019-04-05T06:13:41.532Z,1.37
2019-04-05T06:16:10.601Z,1.97
2019-04-05T06:18:39.098Z,1.32
2019-04-05T06:21:07.511Z,1.60
2019-04-05T06:23:36.217Z,1.17
2019-04-05T06:26:04.989Z,1.13
2019-04-05T06:28:33.683Z,1.90
2019-04-05T06:31:02.303Z,0.93
2019-04-05T06:35:39.525Z,1.20
2019-04-05T06:36:01.137Z,1.10
2019-04-05T06:38:29.541Z,1.33
2019-04-05T06:40:57.892Z,1.07
2019-04-05T06:43:26.322Z,1.10
2019-04-05T06:45:55.175Z,1.40
2019-04-05T06:48:23.934Z,1.13
2019-04-05T06:50:54.497Z,0.90
2019-04-05T06:53:22.845Z,0.80
2019-04-05T06:55:51.155Z,1.10
2019-04-05T06:58:20.165Z,0.97
2019-04-05T07:00:57.010Z,0.90
2019-04-05T07:03:19.698Z,0.80
2019-04-05T07:05:48.001Z,1.50
2019-04-05T07:08:18.351Z,1.00
2019-04-05T07:10:47.290Z,0.60
2019-04-05T07:13:15.848Z,0.87
2019-04-05T07:15:48.221Z,1.00
2019-04-05T07:18:16.798Z,1.07
2019-04-05T07:20:45.217Z,1.20
2019-04-05T07:23:13.766Z,1.10
2019-04-05T07:25:42.329Z,1.10
2019-04-05T07:28:10.857Z,0.90
2019-04-05T07:30:39.525Z,0.70
2019-04-05T07:33:08.277Z,1.00
2019-04-05T07:35:37.114Z,0.93
2019-04-05T07:38:05.613Z,0.87
2019-04-05T07:40:34.529Z,0.60
2019-04-05T07:43:06.509Z,0.50
2019-04-05T07:45:35.501Z,0.50
2019-04-05T07:48:04.190Z,0.43
2019-04-05T07:50:32.521Z,1.07
2019-04-05T07:53:00.812Z,0.93
2019-04-05T07:55:29.323Z,0.40
2019-04-05T07:57:58.317Z,0.87
2019-04-05T08:00:43.898Z,0.63
2019-04-05T08:03:12.893Z,0.43
2019-04-05T08:05:41.470Z,0.43
2019-04-05T08:08:12.054Z,1.13
2019-04-05T08:10:41.711Z,1.23
2019-04-05T08:13:12.095Z,0.77
2019-04-05T08:15:40.538Z,0.70
2019-04-05T08:18:09.657Z,1.00
2019-04-05T08:20:38.218Z,0.50
2019-04-05T08:23:06.929Z,0.70
2019-04-05T08:25:35.691Z,1.10
2019-04-05T08:28:06.748Z,1.00
2019-04-05T08:30:34.798Z,1.07
2019-04-05T08:33:03.309Z,0.60
2019-04-05T08:35:31.953Z,0.60
2019-04-05T08:38:00.945Z,0.77
2019-04-05T08:40:29.646Z,0.80
2019-04-05T08:42:58.566Z,0.50
2019-04-05T08:45:26.957Z,0.70
2019-04-05T08:47:55.581Z,1.33
2019-04-05T08:50:24.010Z,0.67
2019-04-05T08:52:52.334Z,1.00
2019-04-05T08:55:20.678Z,0.53
2019-04-05T08:57:49.166Z,0.53
2019-04-05T09:00:17.468Z,1.00
2019-04-05T09:02:46.376Z,0.87
2019-04-05T09:05:15.760Z,1.00
2019-04-05T09:07:44.221Z,0.67
2019-04-05T09:10:13.018Z,0.83
2019-04-05T09:12:41.898Z,1.00
2019-04-05T09:15:10.445Z,1.53
2019-04-05T09:17:38.844Z,0.80
2019-04-05T09:20:08.279Z,0.83
2019-04-05T09:22:36.984Z,0.87
2019-04-05T09:25:12.989Z,0.73
2019-04-05T09:27:41.789Z,0.83
2019-04-05T09:30:11.028Z,0.83
2019-04-05T09:32:39.844Z,1.00
2019-04-05T09:35:09.392Z,0.47
2019-04-05T09:37:38.569Z,0.60
2019-04-05T09:40:07.702Z,0.80
2019-04-05T09:42:36.319Z,0.60
2019-04-05T09:45:07.135Z,0.90
2019-04-05T09:47:36.150Z,0.90
2019-04-05T09:50:05.190Z,0.67
2019-04-05T09:52:33.741Z,0.90
2019-04-05T09:55:02.616Z,0.60
2019-04-05T09:57:32.159Z,0.93
2019-04-05T10:00:00.837Z,0.67
2019-04-05T10:02:31.812Z,0.60
2019-04-05T10:05:00.362Z,0.60
2019-04-05T10:07:29.114Z,0.80
2019-04-05T10:09:57.418Z,0.60
2019-04-05T10:12:26.040Z,0.60
2019-04-05T10:14:54.745Z,0.70
2019-04-05T10:17:24.426Z,0.93
2019-04-05T10:19:53.200Z,0.60
2019-04-05T10:22:22.031Z,0.80
2019-04-05T10:24:50.726Z,0.50
2019-04-05T10:27:19.318Z,0.60
2019-04-05T10:29:49.505Z,0.77
2019-04-05T10:32:17.968Z,0.90
2019-04-05T10:34:46.530Z,0.50
2019-04-05T10:37:15.120Z,0.50
2019-04-05T10:39:43.746Z,0.70
2019-04-05T10:42:17.119Z,1.00
2019-04-05T10:44:45.987Z,0.70
2019-04-05T10:47:14.387Z,0.70
2019-04-05T10:49:43.127Z,0.70
2019-04-05T10:52:12.563Z,0.70
2019-04-05T10:54:42.086Z,0.77
2019-04-05T10:57:11.308Z,0.97
2019-04-05T10:59:39.923Z,1.10
2019-04-05T11:02:08.702Z,0.60
2019-04-05T11:04:37.193Z,0.70
2019-04-05T11:07:05.908Z,0.60
2019-04-05T11:09:34.317Z,1.20
2019-04-05T11:12:03.809Z,0.60
2019-04-05T11:14:32.641Z,0.70
2019-04-05T11:17:04.522Z,1.20
2019-04-05T11:19:32.656Z,0.77
2019-04-05T11:22:01.551Z,0.73
2019-04-05T11:24:30.137Z,0.80
2019-04-05T11:26:59.040Z,0.70
2019-04-05T11:29:27.916Z,0.90
2019-04-05T11:31:57.689Z,0.97
2019-04-05T11:34:26.815Z,0.60
2019-04-05T11:36:55.833Z,0.60
2019-04-05T11:39:25.265Z,0.57
2019-04-05T11:41:55.462Z,0.60
2019-04-05T11:44:24.445Z,0.73
2019-04-05T11:46:54.046Z,0.80
2019-04-05T11:49:22.762Z,1.30
2019-04-05T11:51:51.238Z,5.63
2019-04-05T11:54:20.406Z,0.90
2019-04-05T11:56:48.834Z,1.00
2019-04-05T11:59:17.986Z,0.67
2019-04-05T12:02:14.933Z,0.90
2019-04-05T12:04:43.930Z,0.50
2019-04-05T12:07:12.921Z,0.70
2019-04-05T12:09:41.922Z,0.60
2019-04-05T12:12:11.434Z,0.60
2019-04-05T12:14:39.781Z,0.87
2019-04-05T12:17:09.811Z,0.57
2019-04-05T12:19:38.408Z,0.70
2019-04-05T12:22:09.203Z,1.10
2019-04-05T12:24:38.943Z,1.27
2019-04-05T12:27:07.215Z,2.03
2019-04-05T12:29:35.589Z,0.43
2019-04-05T12:32:04.367Z,0.30
2019-04-05T12:34:32.918Z,0.50
2019-04-05T12:37:01.599Z,0.50
2019-04-05T12:39:30.874Z,0.60
2019-04-05T12:42:03.493Z,0.57
2019-04-05T12:44:32.321Z,0.50
2019-04-05T12:47:00.960Z,0.50
2019-04-05T12:49:29.650Z,0.40
2019-04-05T12:51:58.206Z,0.50
2019-04-05T12:54:27.172Z,0.40
2019-04-05T12:56:57.867Z,0.77
2019-04-05T12:59:26.759Z,0.60
2019-04-05T13:01:56.299Z,0.70
2019-04-05T13:04:27.217Z,0.50
2019-04-05T13:06:58.447Z,0.80
2019-04-05T13:09:26.921Z,1.00
2019-04-05T13:11:57.520Z,0.50
2019-04-05T13:14:26.989Z,0.80
2019-04-05T13:16:55.642Z,0.60
2019-04-05T13:19:24.435Z,0.60
2019-04-05T13:21:53.157Z,0.53
2019-04-05T13:24:21.832Z,1.20
2019-04-05T13:26:50.528Z,0.60
2019-04-05T13:29:19.773Z,1.10
2019-04-05T13:31:49.278Z,0.80
2019-04-05T13:34:18.938Z,1.00
2019-04-05T13:36:47.574Z,0.80
2019-04-05T13:39:16.358Z,1.10
2019-04-05T13:41:44.989Z,1.22
2019-04-05T13:44:14.345Z,0.90
2019-04-05T13:46:43.121Z,1.30
2019-04-05T13:49:12.180Z,1.05
2019-04-05T13:51:42.116Z,1.37
2019-04-05T13:54:11.398Z,1.35
2019-04-05T13:56:41.526Z,1.30
2019-04-05T13:59:10.209Z,0.88
2019-04-05T14:01:39.048Z,1.10
2019-04-05T14:04:07.501Z,1.10
2019-04-05T14:06:36.259Z,0.98
2019-04-05T14:09:06.361Z,1.37
2019-04-05T14:11:35.020Z,0.70
2019-04-05T14:14:03.936Z,1.07
2019-04-05T14:16:33.769Z,0.93
2019-04-05T14:19:02.456Z,0.85
2019-04-05T14:21:40.399Z,0.70
2019-04-05T14:24:04.080Z,1.03
2019-04-05T14:26:32.811Z,0.67
2019-04-05T14:29:03.724Z,1.00
2019-04-05T14:31:32.573Z,0.70
2019-04-05T14:34:00.966Z,0.67
2019-04-05T14:36:29.807Z,1.17
2019-04-05T14:38:58.522Z,0.90
2019-04-05T14:41:27.049Z,0.80
2019-04-05T14:43:55.764Z,0.70
2019-04-05T14:46:28.095Z,0.70
2019-04-05T14:48:55.236Z,0.90
2019-04-05T14:51:23.898Z,0.60
2019-04-05T14:53:52.395Z,0.90
2019-04-05T14:56:21.289Z,1.10
2019-04-05T14:58:50.339Z,0.80
2019-04-05T15:01:19.184Z,0.70
2019-04-05T15:03:47.974Z,0.80
2019-04-05T15:06:16.497Z,1.25
2019-04-05T15:08:47.751Z,0.90
2019-04-05T15:11:15.130Z,0.60
2019-04-05T15:13:43.946Z,0.80
2019-04-05T15:16:14.419Z,0.60
2019-04-05T15:18:42.508Z,0.80
2019-04-05T15:21:11.216Z,0.80
2019-04-05T15:23:41.320Z,2.13
2019-04-05T15:26:10.330Z,1.73
2019-04-05T15:28:39.103Z,1.53
2019-04-05T15:31:08.167Z,0.70
2019-04-05T15:33:37.002Z,0.90
2019-04-05T15:36:05.480Z,1.43
2019-04-05T15:38:34.205Z,0.73
2019-04-05T15:41:03.626Z,1.23
2019-04-05T15:43:32.162Z,0.80
2019-04-05T15:46:01.638Z,1.13
2019-04-05T15:48:30.156Z,0.80
2019-04-05T15:50:59.276Z,0.90
2019-04-05T15:53:31.894Z,1.10
2019-04-05T15:55:58.064Z,1.47
2019-04-05T15:58:26.636Z,1.20
2019-04-05T16:00:55.163Z,0.97
2019-04-05T16:03:23.812Z,1.50
2019-04-05T16:05:52.534Z,0.90
2019-04-05T16:08:21.053Z,1.50
2019-04-05T16:10:50.743Z,2.50
2019-04-05T16:13:19.508Z,1.50
2019-04-05T16:15:48.044Z,1.10
2019-04-05T16:18:16.543Z,1.10
2019-04-05T16:20:45.266Z,1.20
2019-04-05T16:23:14.003Z,1.20
2019-04-05T16:25:42.945Z,1.53
2019-04-05T16:28:11.523Z,1.40
2019-04-05T16:30:40.202Z,1.50
2019-04-05T16:33:08.842Z,0.90
2019-04-05T16:35:37.368Z,1.80
2019-04-05T16:38:05.926Z,1.50
2019-04-05T16:40:35.715Z,1.20
2019-04-05T16:43:04.512Z,1.30
2019-04-05T16:45:33.069Z,1.60
2019-04-05T16:48:01.556Z,1.20
2019-04-05T16:50:30.096Z,1.30
2019-04-05T16:52:58.424Z,1.70
2019-04-05T16:55:26.964Z,1.10
2019-04-05T16:57:55.482Z,1.30
2019-04-05T17:00:42.982Z,2.30
2019-04-05T17:03:11.886Z,1.67
2019-04-05T17:05:40.237Z,2.27
2019-04-05T17:08:09.036Z,3.00
2019-04-05T17:10:37.984Z,3.27
2019-04-05T17:13:06.804Z,2.27
2019-04-05T17:15:35.398Z,3.53
2019-04-05T17:18:06.192Z,1.60
2019-04-05T17:20:34.883Z,2.30
2019-04-05T17:23:03.917Z,1.90
2019-04-05T17:25:32.913Z,3.37
2019-04-05T17:28:02.826Z,2.67
2019-04-05T17:30:31.437Z,2.30
2019-04-05T17:33:00.194Z,2.90
2019-04-05T17:35:28.837Z,2.87
2019-04-05T17:37:57.876Z,3.00
2019-04-05T17:40:26.465Z,2.97
2019-04-05T17:42:54.985Z,2.73
2019-04-05T17:45:23.612Z,2.30
2019-04-05T17:47:52.472Z,1.90
2019-04-05T17:50:31.333Z,2.00
2019-04-05T17:53:11.374Z,2.50
2019-04-05T17:55:30.877Z,7.67
2019-04-05T17:57:59.744Z,3.87
2019-04-05T18:00:28.646Z,2.80
2019-04-05T18:02:57.347Z,2.63
2019-04-05T18:05:26.250Z,2.60
2019-04-05T18:07:54.950Z,3.00
2019-04-05T18:10:23.661Z,2.10
2019-04-05T18:12:52.124Z,3.20
2019-04-05T18:15:21.021Z,2.97
2019-04-05T18:17:50.491Z,3.53
2019-04-05T18:20:18.988Z,4.30
2019-04-05T18:22:47.537Z,4.80
2019-04-05T18:25:16.145Z,4.40
2019-04-05T18:27:45.087Z,4.23
2019-04-05T18:30:13.757Z,5.57
2019-04-05T18:32:42.489Z,6.73
2019-04-05T18:35:11.412Z,5.27
2019-04-05T18:37:39.861Z,5.20
2019-04-05T18:40:08.844Z,5.40
2019-04-05T18:42:37.692Z,5.20
2019-04-05T18:45:06.282Z,5.77
2019-04-05T18:47:35.211Z,5.53
2019-04-05T18:50:04.204Z,6.67
2019-04-05T18:52:32.870Z,6.00
2019-04-05T18:55:01.688Z,5.17
2019-04-05T18:57:30.268Z,5.33
2019-04-05T18:59:58.723Z,4.73
2019-04-05T19:02:27.211Z,6.43
2019-04-05T19:04:55.860Z,5.40
2019-04-05T19:07:25.005Z,6.07
2019-04-05T19:09:53.961Z,6.17
2019-04-05T19:12:23.513Z,5.40
2019-04-05T19:14:52.601Z,8.57
2019-04-05T19:17:24.207Z,7.70
2019-04-05T19:19:52.729Z,6.87
2019-04-05T19:22:21.479Z,5.33
2019-04-05T19:24:50.050Z,6.23
2019-04-05T19:27:19.058Z,5.20
2019-04-05T19:29:47.989Z,5.63
2019-04-05T19:49:54.434Z,7.33
2019-04-05T19:52:23.724Z,7.30
2019-04-05T19:54:53.305Z,6.53
2019-04-05T19:57:22.287Z,5.40
2019-04-05T19:59:51.371Z,5.80
2019-04-05T20:02:19.990Z,5.80
2019-04-05T20:04:48.743Z,9.30
2019-04-05T20:07:17.913Z,7.77
2019-04-05T20:09:46.368Z,5.80
2019-04-05T20:12:15.372Z,5.20
2019-04-05T20:14:43.768Z,5.83
2019-04-05T20:17:12.403Z,6.77
2019-04-05T20:19:40.789Z,6.47
2019-04-05T20:22:09.735Z,6.20
2019-04-05T20:24:39.094Z,5.20
2019-04-05T20:27:07.968Z,5.90
2019-04-05T20:29:36.788Z,5.60
2019-04-05T20:32:05.396Z,6.00
2019-04-05T20:34:34.156Z,6.07
2019-04-05T20:37:02.467Z,6.17
2019-04-05T20:39:31.275Z,6.37
2019-04-05T20:42:00.223Z,4.97
2019-04-05T20:44:28.800Z,5.07
2019-04-05T20:46:58.074Z,5.13
2019-04-05T20:49:26.588Z,5.30
2019-04-05T20:51:55.582Z,4.50
2019-04-05T20:54:25.529Z,5.10
2019-04-05T20:56:54.179Z,5.28
2019-04-05T20:59:22.901Z,5.40
2019-04-05T21:01:51.553Z,5.03
2019-04-05T21:04:20.117Z,4.60
2019-04-05T21:06:48.811Z,4.10
2019-04-05T21:09:17.265Z,4.40
2019-04-05T21:11:46.024Z,4.43
2019-04-05T21:14:14.332Z,3.97
2019-04-05T21:16:43.248Z,4.17
2019-04-05T21:19:12.026Z,4.33
2019-04-05T21:21:41.077Z,4.43
2019-04-05T21:24:09.786Z,4.20
2019-04-05T21:26:38.754Z,4.45
2019-04-05T21:29:07.488Z,4.70
2019-04-05T21:31:36.170Z,4.33
2019-04-05T21:34:04.999Z,4.00
2019-04-05T21:36:33.428Z,4.40
2019-04-05T21:39:01.738Z,3.77
2019-04-05T21:41:32.098Z,5.17
2019-04-05T21:44:00.743Z,3.77
2019-04-05T21:46:29.224Z,4.13
2019-04-05T21:48:57.998Z,4.43
2019-04-05T21:51:26.470Z,5.43
2019-04-05T21:53:54.869Z,4.53
2019-04-05T21:56:24.883Z,4.17
2019-04-05T21:58:53.473Z,4.87
2019-04-05T22:01:22.665Z,3.90
2019-04-05T22:03:53.649Z,3.50
2019-04-05T22:06:23.378Z,3.80
2019-04-05T22:08:51.800Z,3.60
2019-04-05T22:11:20.237Z,5.20
2019-04-05T22:13:48.626Z,4.20
2019-04-05T22:16:17.343Z,3.10
2019-04-05T22:18:45.696Z,3.10
2019-04-05T22:21:14.408Z,4.23
2019-04-05T22:23:42.925Z,2.50
2019-04-05T22:26:11.609Z,5.63
2019-04-05T22:28:40.261Z,2.63
2019-04-05T22:31:08.838Z,2.40
2019-04-05T22:33:37.826Z,2.23
2019-04-05T22:36:06.317Z,1.90
2019-04-05T22:38:35.000Z,2.40
2019-04-05T22:41:04.602Z,2.00
2019-04-05T22:43:33.557Z,1.97
2019-04-05T22:46:02.181Z,2.27
2019-04-05T22:48:30.867Z,2.33
2019-04-05T22:50:59.455Z,2.80
2019-04-05T22:53:27.902Z,2.57
2019-04-05T22:55:56.616Z,3.23
2019-04-05T22:58:25.294Z,2.80
2019-04-05T23:00:53.977Z,2.73
2019-04-05T23:03:22.639Z,4.47
2019-04-05T23:05:50.785Z,3.90
2019-04-05T23:08:19.429Z,3.03
2019-04-05T23:10:47.746Z,3.00
2019-04-05T23:13:16.240Z,2.83
2019-04-05T23:15:44.889Z,2.50
2019-04-05T23:18:14.787Z,2.67
2019-04-05T23:20:43.365Z,3.20
2019-04-05T23:23:11.757Z,2.90
2019-04-05T23:25:40.535Z,3.33
2019-04-05T23:28:09.119Z,3.47
2019-04-05T23:30:37.581Z,3.03
2019-04-05T23:33:06.014Z,2.30
2019-04-05T23:35:34.693Z,2.87
2019-04-05T23:38:03.265Z,3.90
2019-04-05T23:40:31.761Z,3.20
2019-04-05T23:43:00.783Z,3.50
2019-04-05T23:45:29.772Z,2.83
2019-04-05T23:47:58.403Z,3.50
2019-04-05T23:50:27.145Z,3.67
2019-04-05T23:52:56.137Z,3.27
2019-04-05T23:55:33.216Z,3.30
2019-04-05T23:57:55.333Z,3.10
